createdAt,value
2022-12-09T00:01:42.882Z,56.50
2022-12-09T00:04:50.084Z,58.20
2022-12-09T00:07:57.672Z,57.20
2022-12-09T00:11:04.590Z,61.80
2022-12-09T00:14:12.072Z,56.00
2022-12-09T00:17:19.736Z,68.60
2022-12-09T00:20:26.526Z,75.80
2022-12-09T00:23:34.046Z,78.90
2022-12-09T00:26:41.378Z,82.50
2022-12-09T00:29:48.143Z,74.90
2022-12-09T00:32:55.762Z,73.80
2022-12-09T00:36:02.692Z,65.00
2022-12-09T00:39:10.032Z,67.20
2022-12-09T00:42:17.805Z,62.60
2022-12-09T00:45:24.884Z,58.80
2022-12-09T00:48:32.137Z,47.90
2022-12-09T00:51:39.747Z,46.60
2022-12-09T00:54:47.213Z,47.60
2022-12-09T00:57:54.553Z,49.40
2022-12-09T01:01:01.806Z,59.70
2022-12-09T01:04:09.190Z,70.00
2022-12-09T01:07:16.929Z,73.30
2022-12-09T01:10:24.270Z,65.70
2022-12-09T01:13:32.125Z,59.70
2022-12-09T01:16:39.525Z,66.60
2022-12-09T01:19:46.655Z,64.90
2022-12-09T01:22:54.346Z,69.20
2022-12-09T01:26:01.099Z,72.10
2022-12-09T01:29:08.530Z,71.20
2022-12-09T01:32:16.033Z,87.20
2022-12-09T01:33:10.622Z,77.50
2022-12-09T01:36:18.071Z,76.40
2022-12-09T01:39:25.329Z,74.70
2022-12-09T01:42:32.962Z,83.60
2022-12-09T01:45:39.630Z,85.80
2022-12-09T01:48:47.244Z,85.80
2022-12-09T01:51:54.540Z,86.80
2022-12-09T01:55:01.318Z,92.60
2022-12-09T01:58:08.760Z,92.70
2022-12-09T02:01:15.898Z,96.80
2022-12-09T02:04:23.345Z,97.00
2022-12-09T02:07:30.817Z,94.40
2022-12-09T02:10:38.249Z,96.10
2022-12-09T02:13:45.178Z,105.90
2022-12-09T02:16:52.703Z,104.00
2022-12-09T02:20:00.007Z,109.30
2022-12-09T02:23:07.461Z,112.10
2022-12-09T02:26:14.563Z,108.40
2022-12-09T02:29:22.326Z,112.40
2022-12-09T02:32:29.589Z,108.90
2022-12-09T02:35:37.269Z,109.20
2022-12-09T02:38:45.090Z,107.50
2022-12-09T02:41:52.120Z,97.80
2022-12-09T02:45:00.016Z,82.30
2022-12-09T02:48:07.486Z,69.40
2022-12-09T02:51:14.701Z,69.30
2022-12-09T02:54:22.366Z,67.00
2022-12-09T02:57:30.192Z,60.70
2022-12-09T03:00:37.396Z,61.70
2022-12-09T03:03:45.336Z,60.60
2022-12-09T03:06:52.474Z,61.40
2022-12-09T03:09:59.749Z,63.30
2022-12-09T03:13:07.086Z,69.30
2022-12-09T03:16:14.269Z,72.70
2022-12-09T03:19:21.497Z,86.80
2022-12-09T03:22:28.661Z,89.10
2022-12-09T03:25:36.138Z,90.80
2022-12-09T03:28:43.230Z,104.90
2022-12-09T03:31:50.831Z,114.10
2022-12-09T03:34:58.198Z,124.80
2022-12-09T03:38:05.498Z,120.50
2022-12-09T03:41:12.587Z,138.40
2022-12-09T03:44:20.194Z,146.40
2022-12-09T03:47:27.113Z,150.30
2022-12-09T03:50:35.000Z,138.90
2022-12-09T03:53:42.487Z,139.70
2022-12-09T03:56:49.344Z,138.60
2022-12-09T03:59:56.884Z,159.00
2022-12-09T04:03:04.191Z,144.90
2022-12-09T04:06:11.642Z,173.30
2022-12-09T04:09:19.252Z,159.70
2022-12-09T04:12:26.509Z,143.20
2022-12-09T04:15:33.534Z,160.60
2022-12-09T04:18:40.926Z,141.70
2022-12-09T04:21:48.281Z,146.90
2022-12-09T04:24:55.464Z,139.90
2022-12-09T04:28:02.912Z,138.20
2022-12-09T04:31:10.205Z,135.90
2022-12-09T04:34:17.518Z,148.20
2022-12-09T04:37:24.689Z,134.10
2022-12-09T04:40:32.033Z,127.50
2022-12-09T04:43:39.549Z,116.30
2022-12-09T04:46:46.816Z,112.40
2022-12-09T04:49:54.313Z,104.60
2022-12-09T04:53:01.195Z,98.60
2022-12-09T04:56:08.554Z,93.60
2022-12-09T04:59:16.113Z,91.30
2022-12-09T05:02:23.170Z,93.60
2022-12-09T05:05:31.037Z,94.50
2022-12-09T05:08:39.220Z,90.00
2022-12-09T05:11:46.329Z,93.50
2022-12-09T05:14:53.490Z,79.80
2022-12-09T05:18:01.254Z,75.30
2022-12-09T05:21:08.725Z,76.70
2022-12-09T05:24:16.248Z,74.00
2022-12-09T05:27:23.486Z,77.10
2022-12-09T05:30:31.230Z,83.00
2022-12-09T05:33:39.567Z,90.00
2022-12-09T05:36:46.849Z,87.80
2022-12-09T05:39:54.622Z,92.60
2022-12-09T05:43:01.751Z,81.20
2022-12-09T05:46:09.489Z,79.90
2022-12-09T05:49:16.915Z,85.90
2022-12-09T05:52:24.486Z,85.50
2022-12-09T05:55:31.779Z,87.70
2022-12-09T05:58:39.764Z,94.40
2022-12-09T06:01:47.058Z,98.50
2022-12-09T06:04:54.525Z,89.40
2022-12-09T06:08:06.651Z,94.80
2022-12-09T06:11:04.274Z,93.70
2022-12-09T06:14:12.136Z,87.40
2022-12-09T06:17:19.403Z,88.80
2022-12-09T06:20:27.074Z,82.00
2022-12-09T06:23:34.859Z,89.50
2022-12-09T06:26:42.374Z,89.30
2022-12-09T06:29:50.081Z,98.40
2022-12-09T06:32:57.120Z,91.20
2022-12-09T06:36:04.812Z,92.70
2022-12-09T06:39:12.000Z,90.10
2022-12-09T06:42:19.019Z,84.10
2022-12-09T06:45:26.539Z,74.30
2022-12-09T06:48:34.570Z,74.10
2022-12-09T06:51:41.632Z,74.20
2022-12-09T06:54:49.361Z,76.10
2022-12-09T06:57:56.920Z,84.00
2022-12-09T07:01:03.808Z,63.60
2022-12-09T07:04:11.489Z,56.10
2022-12-09T07:07:19.277Z,57.20
2022-12-09T07:10:26.547Z,54.80
2022-12-09T07:13:33.886Z,49.20
2022-12-09T07:16:41.474Z,55.20
2022-12-09T07:19:49.164Z,58.40
2022-12-09T07:22:56.834Z,52.10
2022-12-09T07:26:04.271Z,47.60
2022-12-09T07:29:11.701Z,51.30
2022-12-09T07:32:19.266Z,54.40
2022-12-09T07:35:27.528Z,56.40
2022-12-09T07:38:34.666Z,62.80
2022-12-09T07:41:42.126Z,70.10
2022-12-09T07:44:49.712Z,75.10
2022-12-09T07:47:56.976Z,80.60
2022-12-09T07:51:04.227Z,76.20
2022-12-09T07:54:11.760Z,80.80
2022-12-09T07:57:19.031Z,78.50
2022-12-09T08:00:26.508Z,84.80
2022-12-09T08:03:34.930Z,81.40
2022-12-09T08:06:41.802Z,78.90
2022-12-09T08:09:49.967Z,84.20
2022-12-09T08:12:58.089Z,79.80
2022-12-09T08:16:05.301Z,89.50
2022-12-09T08:19:13.422Z,84.90
2022-12-09T08:22:21.273Z,86.70
2022-12-09T08:25:28.118Z,88.50
2022-12-09T08:28:35.689Z,89.60
2022-12-09T08:31:44.111Z,81.00
2022-12-09T08:34:51.731Z,92.20
2022-12-09T08:37:59.528Z,93.80
2022-12-09T08:41:06.770Z,95.50
2022-12-09T08:44:14.418Z,99.60
2022-12-09T08:47:22.265Z,108.30
2022-12-09T08:50:29.732Z,103.40
2022-12-09T08:53:37.102Z,104.80
2022-12-09T08:56:44.793Z,98.20
2022-12-09T08:59:51.827Z,117.50
2022-12-09T09:02:59.914Z,108.10
2022-12-09T09:06:10.533Z,107.60
2022-12-09T09:09:18.682Z,103.00
2022-12-09T09:12:26.712Z,98.90
2022-12-09T09:15:33.765Z,108.90
2022-12-09T09:18:41.881Z,106.90
2022-12-09T09:21:49.082Z,93.00
2022-12-09T09:24:56.359Z,97.60
2022-12-09T09:28:03.690Z,101.70
2022-12-09T09:31:10.911Z,104.60
2022-12-09T09:34:18.903Z,119.80
2022-12-09T09:37:26.535Z,122.80
2022-12-09T09:40:33.874Z,121.70
2022-12-09T09:43:41.516Z,135.80
2022-12-09T09:46:48.900Z,145.80
2022-12-09T09:49:56.421Z,183.70
2022-12-09T09:53:03.856Z,225.90
2022-12-09T09:56:11.316Z,200.40
2022-12-09T09:59:18.739Z,250.50
2022-12-09T10:02:26.451Z,224.40
2022-12-09T10:05:34.639Z,170.90
2022-12-09T10:08:42.087Z,232.70
2022-12-09T10:11:50.613Z,262.10
2022-12-09T10:14:58.035Z,205.90
2022-12-09T10:18:05.430Z,204.30
2022-12-09T10:21:13.025Z,219.00
2022-12-09T10:24:20.345Z,190.80
2022-12-09T10:27:28.476Z,181.70
2022-12-09T10:30:41.696Z,204.90
2022-12-09T10:33:40.867Z,251.30
2022-12-09T10:36:48.079Z,161.60
2022-12-09T10:39:55.561Z,173.30
2022-12-09T10:43:03.604Z,202.40
2022-12-09T10:46:19.302Z,207.30
2022-12-09T10:49:15.296Z,232.30
2022-12-09T10:52:23.645Z,195.90
2022-12-09T10:55:30.630Z,182.30
2022-12-09T10:58:38.641Z,161.60
2022-12-09T11:01:46.042Z,140.80
2022-12-09T11:04:53.470Z,138.70
2022-12-09T11:08:01.721Z,141.80
2022-12-09T11:11:08.855Z,118.10
2022-12-09T11:14:17.216Z,102.40
2022-12-09T11:17:25.186Z,98.40
2022-12-09T11:20:32.665Z,112.90
2022-12-09T11:23:40.286Z,100.30
2022-12-09T11:26:47.777Z,103.80
2022-12-09T11:29:55.180Z,96.90
2022-12-09T11:33:02.617Z,114.10
2022-12-09T11:36:10.393Z,133.90
2022-12-09T11:39:17.471Z,139.00
2022-12-09T11:42:24.243Z,175.70
2022-12-09T11:45:31.703Z,160.30
2022-12-09T11:48:43.605Z,138.40
2022-12-09T11:51:40.395Z,150.60
2022-12-09T11:54:47.957Z,127.40
2022-12-09T11:57:54.719Z,117.10
2022-12-09T12:01:02.258Z,145.30
2022-12-09T12:04:09.937Z,103.20
2022-12-09T12:07:16.901Z,129.30
2022-12-09T12:10:24.307Z,132.50
2022-12-09T12:13:31.813Z,126.80
2022-12-09T12:16:39.952Z,107.90
2022-12-09T12:19:47.418Z,122.10
2022-12-09T12:22:55.162Z,122.50
2022-12-09T12:26:02.311Z,129.50
2022-12-09T12:29:09.733Z,120.20
2022-12-09T12:32:16.517Z,129.00
2022-12-09T12:35:23.642Z,118.50
2022-12-09T12:38:30.416Z,105.60
2022-12-09T12:41:37.828Z,106.90
2022-12-09T12:44:45.171Z,95.70
2022-12-09T12:47:52.083Z,87.40
2022-12-09T12:50:59.484Z,78.80
2022-12-09T12:54:06.201Z,89.60
2022-12-09T12:57:13.444Z,88.10
2022-12-09T13:00:20.783Z,98.80
2022-12-09T13:03:27.925Z,81.80
2022-12-09T13:06:35.013Z,83.20
2022-12-09T13:09:42.408Z,74.90
2022-12-09T13:12:49.438Z,71.60
2022-12-09T13:15:56.607Z,77.20
2022-12-09T13:19:03.867Z,66.90
2022-12-09T13:22:11.522Z,75.40
2022-12-09T13:25:18.547Z,68.40
2022-12-09T13:28:25.567Z,72.90
2022-12-09T13:31:32.956Z,77.80
2022-12-09T13:34:40.184Z,72.40
2022-12-09T13:37:47.249Z,82.00
2022-12-09T13:40:54.581Z,74.00
2022-12-09T13:44:01.605Z,76.10
2022-12-09T13:47:08.900Z,72.60
2022-12-09T13:50:16.393Z,66.40
2022-12-09T13:53:23.190Z,64.40
2022-12-09T13:56:30.630Z,62.10
2022-12-09T13:59:37.802Z,69.90
2022-12-09T14:02:44.646Z,82.40
2022-12-09T14:05:52.060Z,80.70
2022-12-09T14:08:59.094Z,91.90
2022-12-09T14:12:06.096Z,83.00
2022-12-09T14:15:13.539Z,88.20
2022-12-09T14:18:20.522Z,88.20
2022-12-09T14:21:27.606Z,88.60
2022-12-09T14:24:35.223Z,91.00
2022-12-09T14:27:42.252Z,78.90
2022-12-09T14:30:49.333Z,92.10
2022-12-09T14:33:56.398Z,84.30
2022-12-09T14:37:03.657Z,86.30
2022-12-09T14:40:11.002Z,89.70
2022-12-09T14:43:18.309Z,94.80
2022-12-09T14:46:25.818Z,86.30
2022-12-09T14:49:39.235Z,87.60
2022-12-09T14:52:38.422Z,87.80
2022-12-09T14:55:46.025Z,87.50
2022-12-09T14:58:52.932Z,93.40
2022-12-09T15:02:00.624Z,106.00
2022-12-09T15:05:08.057Z,103.30
2022-12-09T15:08:14.928Z,113.40
2022-12-09T15:11:22.714Z,106.00
2022-12-09T15:14:30.025Z,113.40
2022-12-09T15:17:37.178Z,118.50
2022-12-09T15:20:44.296Z,114.40
2022-12-09T15:23:51.437Z,108.70
2022-12-09T15:26:58.674Z,120.90
2022-12-09T15:30:06.417Z,110.60
2022-12-09T15:33:14.195Z,102.20
2022-12-09T15:36:21.536Z,104.30
2022-12-09T15:39:28.276Z,112.90
2022-12-09T15:42:35.637Z,108.20
2022-12-09T15:45:42.356Z,111.10
2022-12-09T15:48:49.974Z,135.70
2022-12-09T15:51:57.314Z,109.60
2022-12-09T15:55:04.068Z,108.10
2022-12-09T15:58:11.468Z,120.30
2022-12-09T16:01:18.708Z,111.30
2022-12-09T16:04:25.906Z,126.40
2022-12-09T16:07:33.174Z,116.10
2022-12-09T16:10:40.499Z,127.60
2022-12-09T16:13:47.497Z,132.00
2022-12-09T16:16:54.309Z,107.90
2022-12-09T16:20:01.410Z,91.10
2022-12-09T16:23:08.370Z,112.10
2022-12-09T16:26:15.425Z,132.80
2022-12-09T16:29:22.945Z,129.30
2022-12-09T16:32:30.773Z,139.20
2022-12-09T16:35:37.461Z,126.70
2022-12-09T16:38:44.655Z,114.60
2022-12-09T16:41:51.644Z,120.40
2022-12-09T16:44:58.399Z,129.90
2022-12-09T16:48:05.453Z,106.30
2022-12-09T16:51:12.302Z,130.70
2022-12-09T16:54:20.826Z,119.70
2022-12-09T16:57:28.808Z,112.80
2022-12-09T17:00:36.768Z,129.60
2022-12-09T17:03:44.584Z,118.90
2022-12-09T17:06:51.817Z,117.70
2022-12-09T17:10:00.612Z,132.80
2022-12-09T17:13:07.747Z,254.20
2022-12-09T17:16:14.910Z,150.30
2022-12-09T17:19:22.733Z,154.50
2022-12-09T17:22:29.917Z,138.20
2022-12-09T17:25:37.629Z,141.80
2022-12-09T17:28:45.339Z,140.10
2022-12-09T17:31:52.428Z,121.50
2022-12-09T17:35:00.022Z,172.40
2022-12-09T17:38:09.050Z,123.40
2022-12-09T17:41:17.935Z,127.10
2022-12-09T17:44:25.735Z,125.30
2022-12-09T17:47:33.073Z,118.70
2022-12-09T17:50:39.973Z,106.30
2022-12-09T17:53:47.193Z,111.40
2022-12-09T17:56:54.476Z,104.50
2022-12-09T18:00:01.704Z,118.10
2022-12-09T18:03:13.971Z,123.80
2022-12-09T18:06:13.119Z,119.20
2022-12-09T18:09:20.322Z,113.80
2022-12-09T18:12:27.417Z,110.80
2022-12-09T18:15:34.621Z,104.70
2022-12-09T18:18:41.945Z,101.30
2022-12-09T18:21:48.847Z,104.90
2022-12-09T18:24:55.963Z,95.30
2022-12-09T18:28:03.269Z,96.30
2022-12-09T18:31:10.529Z,103.00
2022-12-09T18:34:18.407Z,100.10
2022-12-09T18:37:25.779Z,116.60
2022-12-09T18:40:32.949Z,123.60
2022-12-09T18:43:40.845Z,121.10
2022-12-09T18:46:47.758Z,144.60
2022-12-09T18:49:55.513Z,136.90
2022-12-09T18:53:02.364Z,148.90
2022-12-09T18:56:09.316Z,136.30
2022-12-09T18:59:16.724Z,142.70
2022-12-09T19:02:23.913Z,150.00
2022-12-09T19:05:30.764Z,150.00
2022-12-09T19:08:38.222Z,150.70
2022-12-09T19:11:45.043Z,145.90
2022-12-09T19:14:51.796Z,139.60
2022-12-09T19:17:59.088Z,131.70
2022-12-09T19:21:06.337Z,134.90
2022-12-09T19:24:13.547Z,145.40
2022-12-09T19:27:21.648Z,143.20
2022-12-09T19:30:29.439Z,155.30
2022-12-09T19:33:36.620Z,142.40
2022-12-09T19:36:43.559Z,183.20
2022-12-09T19:39:50.713Z,161.20
2022-12-09T19:42:58.222Z,150.50
2022-12-09T19:46:05.016Z,164.10
2022-12-09T19:49:12.500Z,158.30
2022-12-09T19:52:20.082Z,144.40
2022-12-09T19:55:26.931Z,140.10
2022-12-09T19:58:34.811Z,154.80
2022-12-09T20:01:42.317Z,151.40
2022-12-09T20:04:50.624Z,145.00
2022-12-09T20:07:58.736Z,154.10
2022-12-09T20:11:06.263Z,155.00
2022-12-09T20:14:13.187Z,138.40
2022-12-09T20:17:20.289Z,128.40
2022-12-09T20:20:27.507Z,118.70
2022-12-09T20:23:35.022Z,125.60
2022-12-09T20:26:42.184Z,134.10
2022-12-09T20:29:49.341Z,128.60
2022-12-09T20:32:56.641Z,130.20
2022-12-09T20:36:03.825Z,122.20
2022-12-09T20:39:11.083Z,100.90
2022-12-09T20:42:18.389Z,105.80
2022-12-09T20:45:25.609Z,105.70
2022-12-09T20:48:32.805Z,114.10
2022-12-09T20:51:40.223Z,118.90
2022-12-09T20:54:47.115Z,107.30
2022-12-09T20:57:54.476Z,109.00
2022-12-09T21:01:01.297Z,100.90
2022-12-09T21:04:08.612Z,115.30
2022-12-09T21:07:16.158Z,114.20
2022-12-09T21:10:22.938Z,112.50
2022-12-09T21:13:30.439Z,102.30
2022-12-09T21:16:38.113Z,106.40
2022-12-09T21:19:44.957Z,104.80
2022-12-09T21:23:24.776Z,91.60
2022-12-09T21:25:56.699Z,82.20
2022-12-09T21:29:04.330Z,95.30
2022-12-09T21:32:11.770Z,86.00
2022-12-09T21:35:19.005Z,69.90
2022-12-09T21:38:26.181Z,75.40
2022-12-09T21:41:33.983Z,77.30
2022-12-09T21:44:41.264Z,75.30
2022-12-09T21:47:48.533Z,68.40
2022-12-09T21:50:56.019Z,72.30
2022-12-09T21:54:03.393Z,58.00
2022-12-09T21:57:10.816Z,57.50
2022-12-09T22:00:17.946Z,60.70
2022-12-09T22:03:25.623Z,64.70
2022-12-09T22:06:32.681Z,61.10
2022-12-09T22:09:39.652Z,73.70
2022-12-09T22:12:47.025Z,69.60
2022-12-09T22:15:53.874Z,66.80
2022-12-09T22:19:01.375Z,66.80
2022-12-09T22:22:09.407Z,68.70
2022-12-09T22:25:16.129Z,81.40
2022-12-09T22:28:23.615Z,72.80
2022-12-09T22:31:31.209Z,69.30
2022-12-09T22:34:38.015Z,66.60
2022-12-09T22:37:45.517Z,70.00
2022-12-09T22:40:52.390Z,68.90
2022-12-09T22:43:59.667Z,71.50
2022-12-09T22:47:07.217Z,68.50
2022-12-09T22:50:14.575Z,72.80
2022-12-09T22:53:21.978Z,66.80
2022-12-09T22:56:29.624Z,75.00
2022-12-09T22:59:42.694Z,77.70
2022-12-09T23:02:40.072Z,67.90
2022-12-09T23:05:47.488Z,67.20
2022-12-09T23:08:54.759Z,74.60
2022-12-09T23:12:02.596Z,68.90
2022-12-09T23:15:09.970Z,70.40
2022-12-09T23:18:17.480Z,68.70
2022-12-09T23:21:25.102Z,69.40
2022-12-09T23:24:32.375Z,65.50
2022-12-09T23:27:39.682Z,72.90
2022-12-09T23:30:47.088Z,64.50
2022-12-09T23:33:54.411Z,70.10
2022-12-09T23:37:01.572Z,67.00
2022-12-09T23:40:09.081Z,74.60
2022-12-09T23:43:16.603Z,71.50
2022-12-09T23:46:23.829Z,69.40
2022-12-09T23:49:30.962Z,71.90
2022-12-09T23:52:38.071Z,68.80
2022-12-09T23:55:44.921Z,68.60
2022-12-09T23:58:52.383Z,70.20
